Time;durP1;ratioP1;P1;durP2;ratioP2;P2;SDS_P1;SDS_P2;PMS_P1;PMS_P2;Temp;Humidity;BMP_temperature;BMP_pressure;BME280_temperature;BME280_humidity;BME280_pressure;Samples;Min_cycle;Max_cycle;Signal;HPM_P1;HPM_P2
2021/03/26 00:01:40;;;;;;;3.80;1.20;;;14.80;59.30;;;;;;6228709;23;20016;-72
2021/03/26 00:04:07;;;;;;;3.55;0.98;;;14.80;59.30;;;;;;6228884;23;20030;-72
2021/03/26 00:06:38;;;;;;;3.22;1.30;;;14.80;59.20;;;;;;6228438;23;20022;-72
2021/03/26 00:09:05;;;;;;;3.03;1.00;;;14.70;58.80;;;;;;6220022;23;20091;-73
2021/03/26 00:11:32;;;;;;;4.43;1.10;;;14.80;58.80;;;;;;6228493;23;20031;-72
2021/03/26 00:13:58;;;;;;;4.13;1.25;;;14.70;59.00;;;;;;6202441;23;20087;-72
2021/03/26 00:16:24;;;;;;;4.13;1.33;;;14.70;59.10;;;;;;6228571;23;20012;-72
2021/03/26 00:18:51;;;;;;;5.38;1.10;;;14.70;59.20;;;;;;6228614;23;20398;-72
2021/03/26 00:21:18;;;;;;;3.97;1.45;;;14.70;58.70;;;;;;6228723;23;20022;-72
2021/03/26 00:23:44;;;;;;;4.60;1.40;;;14.70;58.90;;;;;;6229851;23;20067;-72
2021/03/26 00:26:10;;;;;;;4.32;1.38;;;14.70;59.00;;;;;;6218903;23;20271;-72
2021/03/26 00:28:36;;;;;;;3.63;1.42;;;14.70;59.00;;;;;;6219129;23;20016;-72
2021/03/26 00:31:02;;;;;;;3.78;1.40;;;14.70;58.90;;;;;;6228665;23;20009;-72
2021/03/26 00:33:29;;;;;;;4.47;1.27;;;14.70;59.00;;;;;;6228568;23;20306;-73
2021/03/26 00:35:55;;;;;;;5.55;1.70;;;14.60;59.10;;;;;;6219552;23;20146;-72
2021/03/26 00:38:24;;;;;;;5.80;1.50;;;14.60;59.00;;;;;;6228336;23;20070;-72
2021/03/26 00:40:50;;;;;;;3.20;1.40;;;14.60;58.90;;;;;;6218778;23;20016;-72
2021/03/26 00:43:17;;;;;;;5.82;1.90;;;14.60;58.80;;;;;;6228512;23;20027;-72
2021/03/26 00:45:43;;;;;;;4.95;1.52;;;14.60;58.80;;;;;;6228381;23;20297;-72
2021/03/26 00:48:09;;;;;;;3.67;1.48;;;14.60;58.70;;;;;;6218256;23;20012;-72
2021/03/26 00:50:42;;;;;;;3.45;1.20;;;14.60;58.60;;;;;;6228024;23;20012;-72
2021/03/26 00:53:30;;;;;;;4.18;1.50;;;14.60;58.80;;;;;;6194669;23;20036;-73
2021/03/26 00:55:56;;;;;;;5.90;1.80;;;14.60;58.80;;;;;;6187959;23;20087;-72
2021/03/26 00:58:23;;;;;;;4.15;1.80;;;14.60;58.70;;;;;;6198264;23;20410;-73
2021/03/26 01:00:51;;;;;;;4.15;1.63;;;14.60;58.80;;;;;;6188580;23;20075;-72
2021/03/26 01:03:18;;;;;;;6.00;1.92;;;14.50;58.70;;;;;;6197877;23;20355;-73
2021/03/26 01:05:49;;;;;;;5.63;1.60;;;14.50;58.70;;;;;;6198046;23;20024;-72
2021/03/26 01:08:19;;;;;;;4.03;1.63;;;14.50;58.60;;;;;;6198351;23;20074;-73
2021/03/26 01:10:49;;;;;;;4.70;1.60;;;14.50;58.80;;;;;;6198131;23;20016;-73
2021/03/26 01:13:21;;;;;;;3.40;1.60;;;14.50;58.70;;;;;;6197741;23;20095;-72
2021/03/26 01:15:47;;;;;;;6.13;2.15;;;14.50;58.90;;;;;;6197762;23;20009;-73
2021/03/26 01:18:38;;;;;;;4.03;1.80;;;14.50;59.00;;;;;;6198722;23;20085;-73
2021/03/26 01:21:05;;;;;;;6.00;2.05;;;14.50;58.60;;;;;;6188508;23;20013;-72
2021/03/26 01:23:31;;;;;;;6.20;1.60;;;14.50;58.70;;;;;;6188320;23;20016;-72
2021/03/26 01:25:58;;;;;;;3.55;1.90;;;14.50;58.70;;;;;;6198685;23;20067;-72
2021/03/26 01:28:27;;;;;;;5.07;1.73;;;14.50;58.80;;;;;;6188018;23;20028;-73
2021/03/26 01:30:53;;;;;;;5.32;1.70;;;14.50;58.80;;;;;;6198074;23;20008;-72
2021/03/26 01:33:21;;;;;;;6.25;2.17;;;14.50;58.70;;;;;;6197502;23;20445;-72
2021/03/26 01:35:48;;;;;;;3.83;1.98;;;14.50;59.00;;;;;;6198137;23;20414;-72
2021/03/26 01:38:14;;;;;;;4.22;1.80;;;14.50;59.00;;;;;;6188212;23;20036;-72
2021/03/26 01:40:47;;;;;;;6.55;2.45;;;14.50;59.10;;;;;;6197980;23;20017;-73
2021/03/26 01:43:20;;;;;;;3.30;1.52;;;14.40;58.80;;;;;;6197619;23;20071;-72
2021/03/26 01:45:47;;;;;;;4.78;1.85;;;14.40;59.60;;;;;;6198051;23;20035;-73
2021/03/26 01:48:19;;;;;;;5.35;1.85;;;14.40;59.00;;;;;;6197350;23;20039;-73
2021/03/26 01:50:45;;;;;;;4.75;1.67;;;14.40;58.90;;;;;;6197805;23;20056;-72
2021/03/26 01:53:11;;;;;;;5.43;2.22;;;14.40;59.50;;;;;;6203455;23;20016;-72
2021/03/26 01:55:45;;;;;;;4.90;2.28;;;14.40;58.90;;;;;;6217619;23;20039;-72
2021/03/26 01:58:18;;;;;;;3.97;1.65;;;14.40;59.00;;;;;;6227734;23;20074;-72
2021/03/26 02:00:50;;;;;;;4.57;2.05;;;14.40;59.00;;;;;;6227937;23;20012;-73
2021/03/26 02:03:36;;;;;;;5.13;2.20;;;14.40;59.00;;;;;;6228000;23;20020;-72
2021/03/26 02:06:20;;;;;;;3.92;2.05;;;14.40;58.90;;;;;;6227643;23;20012;-72
2021/03/26 02:08:46;;;;;;;;;;;14.40;59.00;;;;;;6218313;23;20060;-72
2021/03/26 02:11:17;;;;;;;6.55;2.05;;;14.40;59.00;;;;;;6228180;23;19994;-72
2021/03/26 02:13:44;;;;;;;5.53;2.35;;;14.40;59.00;;;;;;6228108;23;20054;-73
2021/03/26 02:16:11;;;;;;;7.05;2.25;;;14.40;59.00;;;;;;6226967;23;20016;-72
2021/03/26 02:18:40;;;;;;;6.78;2.42;;;14.40;58.90;;;;;;6227590;23;20014;-72
2021/03/26 02:21:19;;;;;;;6.82;2.60;;;14.40;59.00;;;;;;6228231;23;20008;-73
2021/03/26 02:23:45;;;;;;;5.78;2.35;;;14.40;59.10;;;;;;6227565;23;20417;-72
2021/03/26 02:26:25;;;;;;;7.40;2.45;;;14.40;59.10;;;;;;6217874;23;20012;-73
2021/03/26 02:28:52;;;;;;;5.10;2.30;;;14.30;58.90;;;;;;6230815;23;20016;-72
2021/03/26 02:31:18;;;;;;;3.22;1.85;;;14.30;58.90;;;;;;6229615;23;20418;-72
2021/03/26 02:33:46;;;;;;;3.05;1.77;;;14.40;58.90;;;;;;6229680;23;20401;-72
2021/03/26 02:36:17;;;;;;;3.75;2.00;;;14.40;58.90;;;;;;6229114;23;20301;-72
2021/03/26 02:38:50;;;;;;;4.60;2.20;;;14.30;58.90;;;;;;6229606;23;20293;-72
2021/03/26 02:41:39;;;;;;;6.78;2.17;;;14.30;58.90;;;;;;6230208;23;20020;-72
2021/03/26 02:44:25;;;;;;;5.63;1.80;;;14.30;59.00;;;;;;6229934;23;20024;-72
2021/03/26 02:47:13;;;;;;;6.85;2.20;;;14.30;58.90;;;;;;6229688;23;20027;-72
2021/03/26 02:49:50;;;;;;;3.33;1.35;;;14.30;58.90;;;;;;6227983;23;20008;-73
2021/03/26 02:53:14;;;;;;;8.52;1.90;;;14.30;59.00;;;;;;6229795;23;20012;-72
2021/03/26 02:55:46;;;;;;;5.30;2.00;;;14.30;59.00;;;;;;6070515;23;20019;-73
2021/03/26 02:58:11;;;;;;;4.47;1.85;;;14.30;59.20;;;;;;6079941;23;20097;-72
2021/03/26 03:00:43;;;;;;;5.72;1.73;;;14.30;59.10;;;;;;6150171;23;20139;-72
2021/03/26 03:03:11;;;;;;;5.63;1.90;;;14.30;59.00;;;;;;6219807;23;20309;-72
2021/03/26 03:05:45;;;;;;;6.05;1.80;;;14.30;59.00;;;;;;6230689;23;20012;-72
2021/03/26 03:08:21;;;;;;;4.07;1.77;;;14.30;58.90;;;;;;6229745;23;20175;-72
2021/03/26 03:11:24;;;;;;;4.13;1.50;;;14.30;59.00;;;;;;6229654;23;20008;-73
2021/03/26 03:13:58;;;;;;;4.90;1.92;;;14.30;59.00;;;;;;6229541;23;20012;-73
2021/03/26 03:16:29;;;;;;;4.93;1.88;;;14.30;59.00;;;;;;6229479;23;20008;-72
2021/03/26 03:19:30;;;;;;;5.15;2.25;;;14.30;59.10;;;;;;6230171;23;20031;-72
2021/03/26 03:22:09;;;;;;;3.65;1.88;;;14.30;59.10;;;;;;6209628;23;20012;-72
2021/03/26 03:24:39;;;;;;;4.75;1.45;;;14.30;59.10;;;;;;6230147;23;20016;-72
2021/03/26 03:27:34;;;;;;;5.47;2.00;;;14.20;59.20;;;;;;6229204;23;20036;-72
2021/03/26 03:30:15;;;;;;;5.00;2.03;;;14.20;59.10;;;;;;6220339;23;20054;-72
2021/03/26 03:32:59;;;;;;;4.38;2.17;;;14.20;59.20;;;;;;6229600;23;20008;-72
2021/03/26 03:35:48;;;;;;;4.30;1.80;;;14.30;59.30;;;;;;6219753;23;20023;-72
2021/03/26 03:38:37;;;;;;;3.97;1.75;;;14.20;59.30;;;;;;6217650;23;20020;-72
2021/03/26 03:41:12;;;;;;;4.40;2.03;;;14.30;59.20;;;;;;6200051;23;20016;-72
2021/03/26 03:43:56;;;;;;;4.25;1.77;;;14.20;59.40;;;;;;6229184;23;20079;-72
2021/03/26 03:46:41;;;;;;;;;;;14.20;59.40;;;;;;6229778;23;20092;-72
2021/03/26 03:49:36;;;;;;;5.15;1.75;;;14.20;59.40;;;;;;6228941;23;19948;-72
2021/03/26 03:52:07;;;;;;;5.15;1.75;;;14.20;59.60;;;;;;6211789;23;20013;-72
2021/03/26 03:55:00;;;;;;;2.95;1.52;;;14.20;59.60;;;;;;6220634;23;20352;-72
2021/03/26 03:57:32;;;;;;;2.90;1.40;;;14.20;59.60;;;;;;6228898;23;20062;-72
2021/03/26 04:00:23;;;;;;;5.57;2.15;;;14.20;59.70;;;;;;6218710;23;20012;-72
2021/03/26 04:03:12;;;;;;;4.88;1.77;;;14.20;59.70;;;;;;6218898;23;20282;-73
2021/03/26 04:05:49;;;;;;;5.18;1.67;;;14.20;59.80;;;;;;6229063;23;20019;-72
2021/03/26 04:08:20;;;;;;;4.65;1.75;;;14.20;59.80;;;;;;6229071;23;20039;-73
2021/03/26 04:10:52;;;;;;;5.10;1.83;;;14.20;59.80;;;;;;6228975;23;20004;-73
2021/03/26 04:13:25;;;;;;;4.35;2.22;;;14.20;59.80;;;;;;6229286;23;20012;-73
2021/03/26 04:15:59;;;;;;;7.78;2.85;;;14.20;59.90;;;;;;6228985;23;20016;-72
2021/03/26 04:18:37;;;;;;;6.70;2.60;;;14.20;59.90;;;;;;6228977;23;20032;-72
2021/03/26 04:21:36;;;;;;;6.80;2.38;;;14.20;59.90;;;;;;6228777;23;20009;-72
2021/03/26 04:24:29;;;;;;;6.80;2.47;;;14.20;59.80;;;;;;6139752;23;20147;-72
2021/03/26 04:27:08;;;;;;;5.10;2.88;;;14.20;60.00;;;;;;6229928;23;20023;-72
2021/03/26 04:29:52;;;;;;;4.90;2.25;;;14.20;60.00;;;;;;6203822;23;20019;-72
2021/03/26 04:32:20;;;;;;;6.13;3.10;;;14.20;60.00;;;;;;6227977;23;20016;-73
2021/03/26 04:34:47;;;;;;;5.93;2.72;;;14.20;60.00;;;;;;6228790;23;20271;-72
2021/03/26 04:37:31;;;;;;;5.07;2.33;;;14.20;60.10;;;;;;6228611;23;20267;-72
2021/03/26 04:40:09;;;;;;;3.92;2.25;;;14.20;60.00;;;;;;6228191;23;20409;-72
2021/03/26 04:43:07;;;;;;;5.43;2.60;;;14.20;60.10;;;;;;6228225;23;20017;-72
2021/03/26 04:45:58;;;;;;;5.32;2.53;;;14.10;60.00;;;;;;6157973;23;20095;-73
2021/03/26 04:48:37;;;;;;;6.18;2.78;;;14.20;60.10;;;;;;6228713;23;20016;-72
2021/03/26 04:51:24;;;;;;;7.28;3.33;;;14.10;60.00;;;;;;6228502;23;20019;-72
2021/03/26 04:54:06;;;;;;;5.82;3.30;;;14.20;60.00;;;;;;6222458;23;20480;-73
2021/03/26 04:56:40;;;;;;;8.55;3.47;;;14.10;60.00;;;;;;6228253;23;20271;-73
2021/03/26 04:59:09;;;;;;;6.15;3.58;;;14.10;60.00;;;;;;6228619;23;20402;-73
2021/03/26 05:01:37;;;;;;;8.65;3.78;;;14.10;59.90;;;;;;6229021;23;20023;-72
2021/03/26 05:04:20;;;;;;;7.00;3.53;;;14.10;60.00;;;;;;6227732;23;20410;-73
2021/03/26 05:06:55;;;;;;;4.93;3.63;;;14.10;59.90;;;;;;6218419;23;20012;-73
2021/03/26 05:09:24;;;;;;;7.65;3.92;;;14.10;59.80;;;;;;6228130;23;20349;-73
2021/03/26 05:11:59;;;;;;;6.28;3.63;;;14.10;59.90;;;;;;6228677;23;20012;-72
2021/03/26 05:14:39;;;;;;;10.15;3.60;;;14.10;59.90;;;;;;6226784;23;20083;-74
2021/03/26 05:17:20;;;;;;;7.95;3.83;;;14.10;59.60;;;;;;6227888;23;20017;-72
2021/03/26 05:20:06;;;;;;;8.40;3.65;;;14.10;59.40;;;;;;6227890;23;20012;-74
2021/03/26 05:22:39;;;;;;;6.28;3.20;;;14.10;59.30;;;;;;6227859;23;20080;-74
2021/03/26 05:25:05;;;;;;;;;;;14.10;59.60;;;;;;6228180;23;20043;-72
2021/03/26 05:27:31;;;;;;;7.72;3.38;;;14.10;59.60;;;;;;6228501;23;19919;-74
2021/03/26 05:29:58;;;;;;;11.63;4.65;;;14.20;60.20;;;;;;6228521;23;20036;-70
2021/03/26 05:32:51;;;;;;;6.18;3.08;;;14.20;60.90;;;;;;6227902;23;20294;-73
2021/03/26 05:35:35;;;;;;;6.90;2.63;;;14.30;61.30;;;;;;6201871;23;20042;-71
2021/03/26 05:38:10;;;;;;;9.05;2.40;;;14.40;61.20;;;;;;6227865;23;20016;-74
2021/03/26 05:40:46;;;;;;;10.48;2.88;;;14.60;60.80;;;;;;6228000;23;20028;-71
2021/03/26 05:43:46;;;;;;;6.00;2.63;;;14.80;60.50;;;;;;6227362;23;20027;-72
2021/03/26 05:46:42;;;;;;;8.30;2.60;;;15.00;60.80;;;;;;6227733;23;20009;-71
2021/03/26 05:49:28;;;;;;;7.50;2.72;;;15.20;60.80;;;;;;6228632;23;20083;-71
2021/03/26 05:52:23;;;;;;;7.68;2.40;;;15.40;60.50;;;;;;6228361;23;20083;-73
2021/03/26 05:55:10;;;;;;;7.78;2.65;;;15.60;61.00;;;;;;6217097;23;20466;-76
2021/03/26 05:57:52;;;;;;;12.63;3.55;;;15.70;60.60;;;;;;6227670;23;20073;-78
2021/03/26 06:00:41;;;;;;;13.77;3.78;;;15.90;61.60;;;;;;6217771;23;20066;-75
2021/03/26 06:03:36;;;;;;;13.48;3.08;;;16.10;61.50;;;;;;6149446;23;20017;-81
2021/03/26 06:06:13;;;;;;;;;;;16.20;61.50;;;;;;6227780;23;20040;-79
2021/03/26 06:09:01;;;;;;;9.45;2.50;;;16.30;61.90;;;;;;6227521;23;19935;-78
2021/03/26 06:11:56;;;;;;;8.93;2.67;;;16.40;62.30;;;;;;6227621;23;20012;-80
2021/03/26 06:14:32;;;;;;;11.43;2.63;;;16.50;62.00;;;;;;6227609;23;20075;-79
2021/03/26 06:17:24;;;;;;;14.40;3.08;;;16.60;61.90;;;;;;6201079;23;20012;-79
2021/03/26 06:20:22;;;;;;;6.88;2.08;;;16.70;62.30;;;;;;6227672;23;20019;-80
2021/03/26 06:23:27;;;;;;;11.10;2.55;;;16.80;61.80;;;;;;6137101;23;20043;-80
2021/03/26 06:26:24;;;;;;;23.02;3.20;;;17.00;60.20;;;;;;6227313;23;20009;-72
2021/03/26 06:29:02;;;;;;;18.73;4.30;;;17.00;61.70;;;;;;6227336;23;20024;-76
2021/03/26 06:32:05;;;;;;;24.63;4.82;;;17.00;60.30;;;;;;6227917;23;20008;-78
2021/03/26 06:34:52;;;;;;;17.20;4.40;;;17.00;58.60;;;;;;6227321;23;20013;-78
2021/03/26 06:38:02;;;;;;;17.98;3.70;;;17.00;59.10;;;;;;6226042;23;20429;-77
2021/03/26 06:40:47;;;;;;;23.02;4.38;;;17.00;60.00;;;;;;6068580;23;20019;-77
2021/03/26 06:43:15;;;;;;;;;;;17.10;60.30;;;;;;6206590;23;20017;-76
2021/03/26 06:46:02;;;;;;;22.70;4.53;;;17.20;60.40;;;;;;6227492;23;20011;-78
2021/03/26 06:48:31;;;;;;;16.10;3.83;;;17.20;60.00;;;;;;6227746;23;20071;-77
2021/03/26 06:51:04;;;;;;;13.07;3.70;;;17.10;59.00;;;;;;6227248;23;20267;-77
2021/03/26 06:53:38;;;;;;;13.93;4.07;;;17.00;58.90;;;;;;6222804;23;20453;-77
2021/03/26 06:56:42;;;;;;;16.30;4.57;;;17.00;59.60;;;;;;6227879;23;20009;-81
2021/03/26 06:59:33;;;;;;;44.63;6.53;;;17.00;60.00;;;;;;6227243;23;20095;-81
2021/03/26 07:02:22;;;;;;;25.88;5.30;;;17.00;60.40;;;;;;6226734;23;20008;-79
2021/03/26 07:05:17;;;;;;;28.77;4.35;;;17.10;60.50;;;;;;6226899;23;20015;-78
2021/03/26 07:08:24;;;;;;;34.42;8.02;;;17.10;60.40;;;;;;6086630;23;20086;-81
2021/03/26 07:11:09;;;;;;;18.45;5.40;;;17.00;59.40;;;;;;6141636;23;20016;-78
2021/03/26 07:13:53;;;;;;;;;;;16.90;59.90;;;;;;6228839;23;20008;-78
2021/03/26 07:17:08;;;;;;;18.75;7.85;;;16.90;60.10;;;;;;6192858;23;19918;-81
2021/03/26 07:20:20;;;;;;;23.02;9.98;;;16.80;59.90;;;;;;6165183;23;20009;-82
2021/03/26 07:26:26;;;;;;;19.92;9.65;;;16.60;59.60;;;;;;6094724;23;20011;-81
2021/03/26 07:29:02;;;;;;;22.67;10.82;;;16.50;59.30;;;;;;6168066;23;20009;-75
2021/03/26 07:31:55;;;;;;;22.05;9.38;;;16.50;58.70;;;;;;6218558;23;20032;-77
2021/03/26 07:35:05;;;;;;;23.53;11.13;;;16.40;59.00;;;;;;6229104;23;20088;-78
2021/03/26 07:37:31;;;;;;;18.08;10.10;;;16.30;58.60;;;;;;6098135;23;20070;-79
2021/03/26 07:40:15;;;;;;;17.05;9.13;;;16.30;59.20;;;;;;6200324;23;20016;-79
2021/03/26 07:42:58;;;;;;;;;;;16.20;59.70;;;;;;6219331;23;20015;-79
2021/03/26 07:45:46;;;;;;;20.58;9.50;;;16.20;59.70;;;;;;6229086;23;19912;-78
2021/03/26 07:48:27;;;;;;;23.08;12.23;;;16.20;59.60;;;;;;6150384;23;20012;-79
2021/03/26 07:51:35;;;;;;;19.35;11.98;;;16.20;58.40;;;;;;6229564;23;20008;-79
2021/03/26 07:54:12;;;;;;;18.98;11.95;;;16.10;57.60;;;;;;6223517;23;20012;-78
2021/03/26 07:56:53;;;;;;;16.65;12.20;;;15.90;57.50;;;;;;6229196;23;20409;-77
2021/03/26 07:59:48;;;;;;;17.00;12.43;;;15.80;57.60;;;;;;6229035;23;20013;-77
2021/03/26 08:02:31;;;;;;;16.50;10.77;;;15.70;57.70;;;;;;6219031;23;20088;-77
2021/03/26 08:05:11;;;;;;;13.02;8.45;;;15.50;58.80;;;;;;6229078;23;20012;-78
2021/03/26 08:08:04;;;;;;;19.55;13.50;;;15.60;59.30;;;;;;6218816;23;20016;-78
2021/03/26 08:10:48;;;;;;;18.20;13.57;;;15.50;58.60;;;;;;6228716;23;20008;-77
2021/03/26 08:13:33;;;;;;;15.88;12.15;;;15.40;58.10;;;;;;6228306;23;20406;-76
2021/03/26 08:16:23;;;;;;;20.98;11.02;;;15.30;59.10;;;;;;6228889;23;20095;-77
2021/03/26 08:19:22;;;;;;;18.48;9.93;;;15.30;59.90;;;;;;6228315;23;20083;-79
2021/03/26 08:21:53;;;;;;;14.00;8.18;;;15.40;60.30;;;;;;6202143;23;20338;-81
2021/03/26 08:24:57;;;;;;;14.65;8.98;;;15.40;60.50;;;;;;6192205;23;20008;-83
2021/03/26 08:27:34;;;;;;;17.25;10.52;;;15.50;60.20;;;;;;6228521;23;20143;-82
2021/03/26 08:30:34;;;;;;;16.48;12.25;;;15.50;60.20;;;;;;6218192;23;20163;-88
2021/03/26 08:34:03;;;;;;;21.33;14.30;;;15.60;59.70;;;;;;6196295;23;20012;-87
2021/03/26 08:36:32;;;;;;;19.55;13.60;;;15.50;59.50;;;;;;6167217;23;20004;-84
2021/03/26 08:39:17;;;;;;;23.20;13.65;;;15.50;59.80;;;;;;6192084;23;20016;-84
2021/03/26 08:41:51;;;;;;;18.70;14.38;;;15.40;59.50;;;;;;6191682;23;20298;-85
2021/03/26 08:44:19;;;;;;;18.95;13.10;;;15.30;59.30;;;;;;6192076;23;20008;-84
2021/03/26 08:46:52;;;;;;;19.98;13.82;;;15.30;59.30;;;;;;6167340;23;20310;-84
2021/03/26 08:49:26;;;;;;;21.35;14.70;;;15.20;59.40;;;;;;6192180;23;20417;-85
2021/03/26 08:52:35;;;;;;;18.35;13.98;;;15.20;59.50;;;;;;6167210;23;20013;-85
2021/03/26 08:55:39;;;;;;;18.67;13.05;;;15.20;59.50;;;;;;6162409;23;20276;-85
2021/03/26 08:58:50;;;;;;;18.05;13.35;;;15.10;59.50;;;;;;6197693;23;20025;-84
2021/03/26 09:01:25;;;;;;;18.42;13.93;;;15.10;59.60;;;;;;6162919;23;20009;-83
2021/03/26 09:04:16;;;;;;;16.70;12.40;;;15.10;59.60;;;;;;6161573;23;20414;-72
2021/03/26 09:06:48;;;;;;;17.35;12.30;;;15.10;60.10;;;;;;6197666;23;20040;-74
2021/03/26 09:09:26;;;;;;;15.35;11.13;;;15.20;59.70;;;;;;6197810;23;20036;-74
2021/03/26 09:12:14;;;;;;;17.92;11.68;;;15.30;59.30;;;;;;6198233;23;20489;-74
2021/03/26 09:15:25;;;;;;;14.07;9.85;;;15.40;59.10;;;;;;6197987;23;20013;-74
2021/03/26 09:18:17;;;;;;;14.77;9.90;;;15.50;59.10;;;;;;6198722;23;20029;-72
2021/03/26 09:20:54;;;;;;;14.23;9.43;;;15.50;59.30;;;;;;6187757;23;20044;-72
2021/03/26 09:23:39;;;;;;;15.98;9.98;;;15.60;59.30;;;;;;6198320;23;20406;-73
2021/03/26 09:26:32;;;;;;;19.00;10.05;;;15.60;59.30;;;;;;6198662;23;20083;-73
2021/03/26 09:29:06;;;;;;;16.00;9.43;;;15.70;60.00;;;;;;6198347;23;20013;-74
2021/03/26 09:31:49;;;;;;;19.17;13.13;;;15.70;59.80;;;;;;6197774;23;20009;-73
2021/03/26 09:34:34;;;;;;;16.42;11.13;;;15.70;59.20;;;;;;6195378;23;20024;-73
2021/03/26 09:37:13;;;;;;;14.40;10.45;;;15.70;59.30;;;;;;6196094;23;20478;-74
2021/03/26 09:39:42;;;;;;;14.88;9.52;;;15.70;59.30;;;;;;6196364;23;20005;-74
2021/03/26 09:42:40;;;;;;;13.65;8.75;;;15.70;59.30;;;;;;6196949;23;20484;-72
2021/03/26 09:45:11;;;;;;;14.73;7.65;;;15.80;59.30;;;;;;6179475;23;20016;-73
2021/03/26 09:48:08;;;;;;;15.80;8.82;;;15.90;59.30;;;;;;6197093;23;20402;-75
2021/03/26 09:50:56;;;;;;;10.90;7.75;;;16.00;59.30;;;;;;6197214;23;20013;-73
2021/03/26 09:53:23;;;;;;;13.65;7.13;;;16.20;59.30;;;;;;6202249;23;20008;-74
2021/03/26 09:55:51;;;;;;;11.02;6.95;;;16.30;59.20;;;;;;6227536;23;20074;-75
2021/03/26 09:58:42;;;;;;;9.55;6.53;;;16.30;59.10;;;;;;6227446;23;20013;-75
2021/03/26 10:01:33;;;;;;;9.57;6.07;;;16.40;59.10;;;;;;6227126;23;20084;-73
2021/03/26 10:04:04;;;;;;;9.38;5.47;;;16.40;59.10;;;;;;6227452;23;20008;-75
2021/03/26 10:06:52;;;;;;;8.52;5.40;;;16.50;59.20;;;;;;6226523;23;20024;-74
2021/03/26 10:12:03;;;;;;;8.35;4.90;;;16.50;59.20;;;;;;6227310;23;20016;-74
2021/03/26 10:14:32;;;;;;;9.45;4.97;;;16.60;59.20;;;;;;6226872;23;20063;-74
2021/03/26 10:17:23;;;;;;;8.95;4.97;;;16.60;59.20;;;;;;6227237;23;20012;-76
2021/03/26 10:19:54;;;;;;;10.43;5.53;;;16.60;59.20;;;;;;6227004;23;20079;-72
2021/03/26 10:22:27;;;;;;;12.63;6.28;;;16.60;58.80;;;;;;6227075;23;20020;-75
2021/03/26 10:25:06;;;;;;;11.18;6.57;;;16.70;58.30;;;;;;6227061;23;20019;-73
2021/03/26 10:27:49;;;;;;;10.32;6.60;;;16.70;57.90;;;;;;6227338;23;20020;-74
2021/03/26 10:30:25;;;;;;;8.00;5.15;;;16.70;57.50;;;;;;6226782;23;20036;-73
2021/03/26 10:32:51;;;;;;;7.97;4.60;;;16.80;57.40;;;;;;6226439;23;20295;-74
2021/03/26 10:35:27;;;;;;;7.65;5.03;;;16.90;57.30;;;;;;6226771;23;20016;-74
2021/03/26 10:37:54;;;;;;;8.82;4.72;;;17.10;57.20;;;;;;6226933;23;20019;-76
2021/03/26 10:40:59;;;;;;;8.20;4.30;;;17.20;57.00;;;;;;6226667;23;20071;-75
2021/03/26 10:43:32;;;;;;;6.85;4.50;;;17.30;56.90;;;;;;6215698;23;20012;-74
2021/03/26 10:46:08;;;;;;;8.43;4.03;;;17.40;56.90;;;;;;6227038;23;20015;-74
2021/03/26 10:49:09;;;;;;;7.32;3.72;;;17.50;56.80;;;;;;6227171;23;20017;-72
2021/03/26 10:51:54;;;;;;;7.10;3.13;;;17.60;56.70;;;;;;6228749;23;20016;-73
2021/03/26 10:54:27;;;;;;;6.22;3.08;;;17.70;56.60;;;;;;6222119;23;20013;-74
2021/03/26 10:57:18;;;;;;;5.65;2.88;;;17.70;56.70;;;;;;6229222;23;20009;-74
2021/03/26 10:59:54;;;;;;;6.93;2.95;;;17.70;56.70;;;;;;6202287;23;20098;-72
2021/03/26 11:02:39;;;;;;;8.38;3.38;;;17.70;56.80;;;;;;6228721;23;20275;-73
2021/03/26 11:05:18;;;;;;;5.00;2.50;;;17.70;56.80;;;;;;6228362;23;20017;-75
2021/03/26 11:08:08;;;;;;;7.65;2.53;;;17.70;56.90;;;;;;6228925;23;20079;-71
2021/03/26 11:10:42;;;;;;;4.10;2.10;;;17.60;56.80;;;;;;6217753;23;20008;-72
2021/03/26 11:13:45;;;;;;;10.20;2.97;;;17.60;56.90;;;;;;6228687;23;20009;-74
2021/03/26 11:16:20;;;;;;;9.27;3.47;;;17.60;56.80;;;;;;6228621;23;20016;-71
2021/03/26 11:19:04;;;;;;;8.13;2.90;;;17.60;57.20;;;;;;6202134;23;20294;-75
2021/03/26 11:21:47;;;;;;;8.05;3.63;;;17.60;57.10;;;;;;6228521;23;20012;-75
2021/03/26 11:24:15;;;;;;;8.40;3.05;;;17.60;57.00;;;;;;6229327;23;20012;-75
2021/03/26 11:27:05;;;;;;;11.25;2.97;;;17.60;56.90;;;;;;6229467;23;20066;-75
2021/03/26 11:29:36;;;;;;;11.13;3.70;;;17.60;56.90;;;;;;6229587;23;20418;-74
2021/03/26 11:32:25;;;;;;;7.50;3.30;;;17.60;56.60;;;;;;6229295;23;20009;-74
2021/03/26 11:35:11;;;;;;;5.18;3.13;;;17.60;56.20;;;;;;6229028;23;20012;-73
2021/03/26 11:37:48;;;;;;;8.73;3.55;;;17.60;56.30;;;;;;6229189;23;20071;-74
2021/03/26 11:40:32;;;;;;;7.50;3.35;;;17.60;56.50;;;;;;6229484;23;20012;-72
2021/03/26 11:43:09;;;;;;;5.68;2.80;;;17.60;56.40;;;;;;6229315;23;20019;-72
2021/03/26 11:45:56;;;;;;;7.55;3.10;;;17.60;56.50;;;;;;6229000;23;20070;-74
2021/03/26 11:48:54;;;;;;;4.72;2.67;;;17.60;56.60;;;;;;6228330;23;20405;-72
2021/03/26 11:51:37;;;;;;;6.90;2.75;;;17.60;56.50;;;;;;6229835;23;20008;-73
2021/03/26 11:54:21;;;;;;;5.22;2.58;;;17.60;56.60;;;;;;6224039;23;20019;-73
2021/03/26 11:57:17;;;;;;;8.40;2.80;;;17.60;56.50;;;;;;6202667;23;20009;-73
2021/03/26 11:59:50;;;;;;;6.35;2.65;;;17.60;56.60;;;;;;6228326;23;20070;-73
2021/03/26 12:02:32;;;;;;;12.23;3.23;;;17.60;56.60;;;;;;6228379;23;20031;-72
2021/03/26 12:05:31;;;;;;;8.05;2.72;;;17.60;56.60;;;;;;6228719;23;20471;-72
2021/03/26 12:08:15;;;;;;;5.95;2.92;;;17.60;56.60;;;;;;6228938;23;20008;-73
2021/03/26 12:10:42;;;;;;;4.20;2.47;;;17.60;56.70;;;;;;6228953;23;20088;-72
2021/03/26 12:13:50;;;;;;;4.38;2.13;;;17.70;56.60;;;;;;6228002;23;20008;-72
2021/03/26 12:16:23;;;;;;;7.18;2.65;;;17.60;56.40;;;;;;6069165;23;20386;-73
2021/03/26 12:19:13;;;;;;;5.82;2.17;;;17.60;56.60;;;;;;6203281;23;20012;-72
2021/03/26 12:22:00;;;;;;;5.57;2.75;;;17.60;56.50;;;;;;6228162;23;20410;-72
2021/03/26 12:24:48;;;;;;;5.13;2.28;;;17.60;56.50;;;;;;6228630;23;20012;-74
2021/03/26 12:27:40;;;;;;;6.45;2.80;;;17.60;56.40;;;;;;6228337;23;20426;-73
2021/03/26 12:30:11;;;;;;;8.65;3.20;;;17.60;55.20;;;;;;6229501;23;20075;-75
2021/03/26 12:32:54;;;;;;;5.30;2.72;;;17.20;56.80;;;;;;6228393;23;20039;-74
2021/03/26 12:35:52;;;;;;;5.47;2.45;;;17.30;57.00;;;;;;6228662;23;20028;-73
2021/03/26 12:38:48;;;;;;;5.47;2.97;;;17.40;57.00;;;;;;6170223;23;20017;-73
2021/03/26 12:41:36;;;;;;;7.55;3.20;;;17.50;57.00;;;;;;6228868;23;20073;-73
2021/03/26 12:44:19;;;;;;;6.75;3.00;;;17.40;57.40;;;;;;6227652;23;20012;-71
2021/03/26 12:46:57;;;;;;;5.47;2.90;;;17.20;58.50;;;;;;6229069;23;20035;-71
2021/03/26 12:49:38;;;;;;;5.75;2.80;;;17.00;59.00;;;;;;6228478;23;20332;-71
2021/03/26 12:52:32;;;;;;;5.90;2.70;;;16.80;59.50;;;;;;6228545;23;20012;-71
2021/03/26 12:55:12;;;;;;;6.95;2.70;;;16.70;60.10;;;;;;6219171;23;20012;-71
2021/03/26 12:58:02;;;;;;;5.43;3.10;;;16.60;60.20;;;;;;6229002;23;20044;-70
2021/03/26 13:00:44;;;;;;;5.63;2.45;;;16.60;60.70;;;;;;6227941;23;20013;-70
2021/03/26 13:03:35;;;;;;;4.80;2.33;;;16.50;60.60;;;;;;6228409;23;20079;-71
2021/03/26 13:06:09;;;;;;;4.53;2.42;;;16.50;60.90;;;;;;6229281;23;20013;-72
2021/03/26 13:08:40;;;;;;;4.60;2.10;;;16.40;60.70;;;;;;6228750;23;20295;-71
2021/03/26 13:11:26;;;;;;;6.38;2.20;;;16.40;60.80;;;;;;6228272;23;20036;-71
2021/03/26 13:13:52;;;;;;;5.47;2.42;;;16.40;60.90;;;;;;6227997;23;20012;-70
2021/03/26 13:16:47;;;;;;;3.83;2.10;;;16.40;60.70;;;;;;6228316;23;20024;-71
2021/03/26 13:19:19;;;;;;;5.68;2.70;;;16.40;61.10;;;;;;6228033;23;20040;-70
2021/03/26 13:22:20;;;;;;;4.68;1.95;;;16.40;60.70;;;;;;6228841;23;20043;-71
2021/03/26 13:25:30;;;;;;;6.38;2.53;;;16.40;61.00;;;;;;6161035;23;20032;-70
2021/03/26 13:27:56;;;;;;;4.50;2.35;;;16.40;61.00;;;;;;6180872;23;20027;-72
2021/03/26 13:30:30;;;;;;;4.78;2.10;;;16.40;60.70;;;;;;6228699;23;20009;-70
2021/03/26 13:32:58;;;;;;;3.78;2.10;;;16.40;60.80;;;;;;6228549;23;20013;-71
2021/03/26 13:35:32;;;;;;;4.97;2.13;;;16.30;60.70;;;;;;6227966;23;20027;-70
2021/03/26 13:38:02;;;;;;;3.17;1.77;;;16.40;60.70;;;;;;6228025;23;20012;-71
2021/03/26 13:40:30;;;;;;;4.70;1.80;;;16.30;60.70;;;;;;6227464;23;20294;-70
2021/03/26 13:43:13;;;;;;;5.25;2.00;;;16.40;60.70;;;;;;6228525;23;20008;-71
2021/03/26 13:46:01;;;;;;;5.30;2.38;;;16.30;60.60;;;;;;6228085;23;20016;-71
2021/03/26 13:48:39;;;;;;;2.83;1.88;;;16.30;60.90;;;;;;6228578;23;20012;-71
2021/03/26 13:51:15;;;;;;;3.55;1.83;;;16.40;60.40;;;;;;6228119;23;20013;-72
2021/03/26 13:54:01;;;;;;;3.45;1.98;;;16.40;60.40;;;;;;6217297;23;20442;-71
2021/03/26 13:56:35;;;;;;;4.88;1.90;;;16.40;60.40;;;;;;6227643;23;20017;-71
2021/03/26 13:59:21;;;;;;;;;;;16.40;60.10;;;;;;6228375;23;20009;-71
2021/03/26 14:01:54;;;;;;;3.08;1.63;;;16.30;60.30;;;;;;6156533;23;20003;-71